createdAt,value
2018-05-03T00:02:29.090Z,100398.48
2018-05-03T00:05:31.580Z,100392.53
2018-05-03T00:08:34.083Z,100391.70
2018-05-03T00:11:36.609Z,100405.71
2018-05-03T00:14:39.288Z,100401.88
2018-05-03T00:17:41.837Z,100402.20
2018-05-03T00:20:44.349Z,100410.19
2018-05-03T00:23:46.852Z,100396.25
2018-05-03T00:26:49.330Z,100392.09
2018-05-03T00:29:51.824Z,100390.08
2018-05-03T00:32:54.334Z,100388.02
2018-05-03T00:35:56.866Z,100402.50
2018-05-03T00:38:59.413Z,100403.00
2018-05-03T00:42:01.907Z,100412.02
2018-05-03T00:45:04.411Z,100414.38
2018-05-03T00:48:07.333Z,100415.42
2018-05-03T00:51:09.829Z,100419.31
2018-05-03T00:54:24.189Z,100414.19
2018-05-03T00:57:26.682Z,100409.89
2018-05-03T01:00:29.184Z,100407.73
2018-05-03T01:03:31.674Z,100412.91
2018-05-03T01:06:34.179Z,100421.71
2018-05-03T01:09:36.660Z,100419.84
2018-05-03T01:12:39.149Z,100419.95
2018-05-03T01:15:41.698Z,100417.12
2018-05-03T01:18:44.183Z,100420.58
2018-05-03T01:21:46.670Z,100430.77
2018-05-03T01:24:49.240Z,100422.67
2018-05-03T01:27:51.721Z,100429.50
2018-05-03T01:30:54.269Z,100434.55
2018-05-03T01:33:56.735Z,100439.03
2018-05-03T01:36:59.280Z,100435.20
2018-05-03T01:40:01.772Z,100428.38
2018-05-03T01:43:04.264Z,100436.00
2018-05-03T01:46:06.767Z,100437.27
2018-05-03T01:49:09.290Z,100436.72
2018-05-03T01:52:11.787Z,100439.42
2018-05-03T01:55:14.276Z,100431.80
2018-05-03T01:58:16.778Z,100430.36
2018-05-03T02:01:19.294Z,100430.91
2018-05-03T02:04:21.793Z,100428.16
2018-05-03T02:07:24.277Z,100429.06
2018-05-03T02:10:26.760Z,100433.79
2018-05-03T02:13:29.234Z,100437.64
2018-05-03T02:16:31.781Z,100446.78
2018-05-03T02:19:34.291Z,100439.45
2018-05-03T02:22:36.786Z,100441.91
2018-05-03T02:25:39.285Z,100439.41
2018-05-03T02:28:41.779Z,100431.28
2018-05-03T02:31:44.279Z,100419.34
2018-05-03T02:34:46.762Z,100411.84
2018-05-03T02:37:49.292Z,100413.20
2018-05-03T02:40:51.812Z,100421.58
2018-05-03T02:43:54.319Z,100422.44
2018-05-03T02:46:56.861Z,100423.91
2018-05-03T02:49:59.376Z,100432.30
2018-05-03T02:53:01.930Z,100432.97
2018-05-03T02:56:04.709Z,100434.34
2018-05-03T02:59:19.106Z,100439.45
2018-05-03T03:02:27.212Z,100444.01
2018-05-03T03:05:47.223Z,100446.20
2018-05-03T03:13:06.717Z,100436.19
2018-05-03T03:16:26.560Z,100433.91
2018-05-03T03:23:34.991Z,100438.00
2018-05-03T03:30:43.199Z,100438.41
2018-05-03T03:33:57.548Z,100446.78
2018-05-03T03:41:20.791Z,100448.88
2018-05-03T03:48:06.617Z,100459.98
2018-05-03T03:51:09.181Z,100469.31
2018-05-03T03:54:11.702Z,100464.20
2018-05-03T03:57:14.235Z,100475.62
2018-05-03T04:00:16.763Z,100476.94
2018-05-03T04:03:19.364Z,100483.84
2018-05-03T04:06:21.967Z,100485.52
2018-05-03T04:09:24.505Z,100487.03
2018-05-03T04:12:27.046Z,100483.63
2018-05-03T04:15:29.532Z,100491.81
2018-05-03T04:18:44.283Z,100480.34
2018-05-03T04:25:34.396Z,100479.30
2018-05-03T04:28:37.007Z,100484.98
2018-05-03T04:31:39.567Z,100480.25
2018-05-03T04:34:42.134Z,100477.92
2018-05-03T04:37:44.654Z,100484.45
2018-05-03T04:40:47.159Z,100485.20
2018-05-03T04:43:49.736Z,100486.97
2018-05-03T04:46:52.331Z,100481.56
2018-05-03T04:49:54.779Z,100472.02
2018-05-03T04:52:58.263Z,100469.36
2018-05-03T04:56:00.753Z,100468.63
2018-05-03T04:59:03.266Z,100469.53
2018-05-03T05:02:05.800Z,100470.05
2018-05-03T05:05:08.308Z,100468.09
2018-05-03T05:08:10.804Z,100466.20
2018-05-03T05:11:13.407Z,100474.03
2018-05-03T05:14:15.935Z,100478.25
2018-05-03T05:17:18.447Z,100483.96
2018-05-03T05:20:20.953Z,100477.66
2018-05-03T05:23:23.463Z,100475.97
2018-05-03T05:26:25.992Z,100484.34
2018-05-03T05:29:28.523Z,100489.95
2018-05-03T05:32:31.079Z,100481.02
2018-05-03T05:35:33.622Z,100494.35
2018-05-03T05:38:36.182Z,100490.34
2018-05-03T05:41:38.700Z,100492.47
2018-05-03T05:44:41.274Z,100483.73
2018-05-03T05:47:43.823Z,100487.16
2018-05-03T05:50:46.513Z,100488.97
2018-05-03T05:53:49.120Z,100488.50
2018-05-03T05:56:51.652Z,100488.67
2018-05-03T05:59:54.213Z,100497.30
2018-05-03T06:02:56.765Z,100495.55
2018-05-03T06:06:00.044Z,100502.59
2018-05-03T06:09:02.585Z,100504.04
2018-05-03T06:12:05.107Z,100509.64
2018-05-03T06:15:07.687Z,100510.09
2018-05-03T06:18:10.208Z,100511.27
2018-05-03T06:21:12.699Z,100510.91
2018-05-03T06:24:15.238Z,100510.70
2018-05-03T06:27:18.636Z,100506.56
2018-05-03T06:30:21.178Z,100514.11
2018-05-03T06:33:23.733Z,100513.47
2018-05-03T06:36:26.229Z,100515.56
2018-05-03T06:39:30.071Z,100519.88
2018-05-03T06:42:32.681Z,100526.87
2018-05-03T06:45:35.201Z,100533.78
2018-05-03T06:48:37.733Z,100525.05
2018-05-03T06:51:40.238Z,100541.66
2018-05-03T06:54:42.761Z,100553.38
2018-05-03T06:57:45.313Z,100562.42
2018-05-03T07:00:47.877Z,100564.88
2018-05-03T07:03:50.427Z,100571.63
2018-05-03T07:06:52.959Z,100576.37
2018-05-03T07:09:55.542Z,100585.58
2018-05-03T07:12:58.027Z,100586.36
2018-05-03T07:16:00.540Z,100599.88
2018-05-03T07:19:03.041Z,100600.27
2018-05-03T07:22:05.562Z,100608.72
2018-05-03T07:25:08.052Z,100616.63
2018-05-03T07:28:10.528Z,100640.36
2018-05-03T07:31:13.307Z,100647.80
2018-05-03T07:34:15.802Z,100659.20
2018-05-03T07:37:18.294Z,100658.83
2018-05-03T07:40:20.805Z,100669.94
2018-05-03T07:43:23.318Z,100676.11
2018-05-03T07:46:25.812Z,100681.31
2018-05-03T07:49:28.306Z,100689.27
2018-05-03T07:52:30.820Z,100697.44
2018-05-03T07:55:33.386Z,100702.45
2018-05-03T07:58:35.887Z,100699.98
2018-05-03T08:01:38.452Z,100702.30
2018-05-03T08:04:40.991Z,100706.52
2018-05-03T08:07:43.525Z,100707.08
2018-05-03T08:10:46.026Z,100711.30
2018-05-03T08:13:48.569Z,100713.66
2018-05-03T08:16:51.100Z,100711.39
2018-05-03T08:19:53.606Z,100706.84
2018-05-03T08:22:56.129Z,100707.59
2018-05-03T08:25:58.623Z,100702.23
2018-05-03T08:29:01.130Z,100715.37
2018-05-03T08:32:03.658Z,100717.24
2018-05-03T08:35:06.140Z,100726.21
2018-05-03T08:38:08.639Z,100727.64
2018-05-03T08:41:11.166Z,100733.83
2018-05-03T08:44:13.653Z,100728.80
2018-05-03T08:47:16.191Z,100724.25
2018-05-03T08:50:18.692Z,100729.86
2018-05-03T08:53:21.202Z,100738.31
2018-05-03T08:56:24.155Z,100723.67
2018-05-03T08:59:26.760Z,100724.75
2018-05-03T09:02:29.285Z,100723.92
2018-05-03T09:05:31.790Z,100729.23
2018-05-03T09:08:34.319Z,100732.13
2018-05-03T09:11:37.004Z,100741.32
2018-05-03T09:14:39.546Z,100751.81
2018-05-03T09:17:42.067Z,100751.34
2018-05-03T09:20:44.538Z,100753.41
2018-05-03T09:23:47.806Z,100743.55
2018-05-03T09:26:50.365Z,100754.58
2018-05-03T09:29:52.854Z,100754.12
2018-05-03T09:32:55.356Z,100763.98
2018-05-03T09:35:57.852Z,100771.12
2018-05-03T09:39:00.345Z,100771.23
2018-05-03T09:42:02.854Z,100767.89
2018-05-03T09:45:05.379Z,100764.23
2018-05-03T09:48:08.844Z,100777.75
2018-05-03T09:51:11.317Z,100772.30
2018-05-03T09:54:13.837Z,100772.17
2018-05-03T09:57:16.368Z,100766.36
2018-05-03T10:00:18.873Z,100771.06
2018-05-03T10:03:21.398Z,100777.63
2018-05-03T10:06:23.912Z,100776.11
2018-05-03T10:09:26.379Z,100780.87
2018-05-03T10:12:28.894Z,100775.38
2018-05-03T10:15:31.397Z,100782.38
2018-05-03T10:18:33.911Z,100789.45
2018-05-03T10:21:36.461Z,100788.84
2018-05-03T10:24:39.059Z,100790.59
2018-05-03T10:27:41.646Z,100789.55
2018-05-03T10:30:44.131Z,100792.73
2018-05-03T10:33:46.680Z,100789.61
2018-05-03T10:36:49.174Z,100798.66
2018-05-03T10:39:51.677Z,100790.59
2018-05-03T10:42:54.242Z,100792.89
2018-05-03T10:45:56.748Z,100799.42
2018-05-03T10:48:59.244Z,100799.05
2018-05-03T10:52:01.752Z,100804.84
2018-05-03T10:55:04.268Z,100809.36
2018-05-03T10:58:07.802Z,100803.67
2018-05-03T11:01:10.323Z,100807.84
2018-05-03T11:04:12.817Z,100811.03
2018-05-03T11:07:15.326Z,100810.39
2018-05-03T11:13:26.506Z,100815.53
2018-05-03T11:16:29.018Z,100814.02
2018-05-03T11:19:31.536Z,100803.25
2018-05-03T11:22:34.043Z,100797.00
2018-05-03T11:25:36.545Z,100808.86
2018-05-03T11:28:39.072Z,100815.48
2018-05-03T11:31:41.567Z,100810.34
2018-05-03T11:34:44.071Z,100813.42
2018-05-03T11:37:46.627Z,100821.25
2018-05-03T11:40:49.202Z,100818.41
2018-05-03T11:43:51.728Z,100822.28
2018-05-03T11:46:54.256Z,100828.55
2018-05-03T11:49:56.783Z,100817.84
2018-05-03T11:52:59.279Z,100810.14
2018-05-03T11:56:01.785Z,100823.06
2018-05-03T11:59:04.385Z,100831.33
2018-05-03T12:02:06.869Z,100814.14
2018-05-03T12:05:09.455Z,100828.65
2018-05-03T12:08:11.977Z,100841.88
2018-05-03T12:11:14.489Z,100835.71
2018-05-03T12:14:17.048Z,100834.65
2018-05-03T12:17:19.567Z,100837.63
2018-05-03T12:20:22.108Z,100837.42
2018-05-03T12:23:24.648Z,100843.02
2018-05-03T12:26:27.191Z,100851.30
2018-05-03T12:29:29.698Z,100856.75
2018-05-03T12:32:32.228Z,100856.56
2018-05-03T12:35:34.751Z,100856.55
2018-05-03T12:38:37.264Z,100851.02
2018-05-03T12:41:39.795Z,100846.55
2018-05-03T12:44:42.428Z,100853.55
2018-05-03T12:47:44.932Z,100847.32
2018-05-03T12:50:47.447Z,100851.34
2018-05-03T12:53:49.961Z,100854.05
2018-05-03T12:56:52.485Z,100837.92
2018-05-03T12:59:54.999Z,100840.87
2018-05-03T13:02:57.565Z,100840.84
2018-05-03T13:06:00.048Z,100838.83
2018-05-03T13:09:02.538Z,100839.11
2018-05-03T13:12:05.055Z,100837.56
2018-05-03T13:15:07.557Z,100833.13
2018-05-03T13:18:10.054Z,100834.86
2018-05-03T13:21:12.575Z,100828.77
2018-05-03T13:24:15.050Z,100836.05
2018-05-03T13:27:17.597Z,100834.71
2018-05-03T13:30:20.135Z,100831.48
2018-05-03T13:33:22.654Z,100839.76
2018-05-03T13:36:25.164Z,100842.97
2018-05-03T13:39:27.678Z,100847.45
2018-05-03T13:42:30.174Z,100845.75
2018-05-03T13:45:32.697Z,100837.83
2018-05-03T13:48:35.239Z,100843.30
2018-05-03T13:51:37.750Z,100851.50
2018-05-03T13:54:40.242Z,100864.14
2018-05-03T13:57:42.900Z,100858.36
2018-05-03T14:00:45.471Z,100859.95
2018-05-03T14:03:48.112Z,100868.19
2018-05-03T14:06:50.654Z,100859.64
2018-05-03T14:09:53.151Z,100858.67
2018-05-03T14:12:55.650Z,100869.38
2018-05-03T14:15:58.169Z,100867.62
2018-05-03T14:19:00.740Z,100870.69
2018-05-03T14:22:03.217Z,100871.41
2018-05-03T14:25:05.790Z,100875.16
2018-05-03T14:28:08.320Z,100871.80
2018-05-03T14:31:10.894Z,100875.49
2018-05-03T14:34:13.446Z,100884.42
2018-05-03T14:37:15.997Z,100880.08
2018-05-03T14:40:18.533Z,100884.91
2018-05-03T14:43:21.076Z,100874.00
2018-05-03T14:46:23.631Z,100886.12
2018-05-03T14:49:26.154Z,100878.22
2018-05-03T14:52:28.701Z,100876.16
2018-05-03T14:55:31.258Z,100877.47
2018-05-03T14:58:34.992Z,100877.42
2018-05-03T15:01:37.556Z,100887.80
2018-05-03T15:04:40.089Z,100883.65
2018-05-03T15:07:42.643Z,100892.33
2018-05-03T15:10:45.181Z,100887.22
2018-05-03T15:13:47.705Z,100894.02
2018-05-03T15:16:50.361Z,100900.97
2018-05-03T15:19:52.921Z,100903.09
2018-05-03T15:22:55.471Z,100907.55
2018-05-03T15:25:57.996Z,100909.81
2018-05-03T15:29:00.686Z,100908.14
2018-05-03T15:32:04.438Z,100913.61
2018-05-03T15:35:07.010Z,100925.16
2018-05-03T15:38:10.655Z,100925.97
2018-05-03T15:41:14.573Z,100931.52
2018-05-03T15:44:17.144Z,100936.05
2018-05-03T15:47:19.700Z,100943.65
2018-05-03T15:50:22.295Z,100941.52
2018-05-03T15:53:24.801Z,100949.17
2018-05-03T15:56:27.438Z,100948.75
2018-05-03T15:59:30.254Z,100946.38
2018-05-03T16:02:32.795Z,100950.53
2018-05-03T16:05:35.369Z,100947.00
2018-05-03T16:08:37.994Z,100957.09
2018-05-03T16:11:40.717Z,100968.03
2018-05-03T16:14:43.305Z,100972.20
2018-05-03T16:17:45.909Z,100977.45
2018-05-03T16:20:48.426Z,100972.52
2018-05-03T16:23:51.659Z,100986.28
2018-05-03T16:26:54.256Z,100986.59
2018-05-03T16:29:56.920Z,100996.41
2018-05-03T16:32:59.601Z,100992.09
2018-05-03T16:36:02.154Z,100988.47
2018-05-03T16:39:04.750Z,100995.92
2018-05-03T16:42:07.399Z,101002.84
2018-05-03T16:45:09.970Z,100998.85
2018-05-03T16:48:12.552Z,101012.02
2018-05-03T16:51:15.066Z,101010.94
2018-05-03T16:54:17.624Z,101020.22
2018-05-03T16:57:20.255Z,101030.42
2018-05-03T17:00:22.874Z,101036.27
2018-05-03T17:03:26.416Z,101041.08
2018-05-03T17:06:28.948Z,101046.26
2018-05-03T17:09:31.508Z,101050.05
2018-05-03T17:12:34.593Z,101052.62
2018-05-03T17:15:37.128Z,101053.70
2018-05-03T17:18:42.717Z,101071.37
2018-05-03T17:21:46.706Z,101060.96
2018-05-03T17:24:49.313Z,101076.88
2018-05-03T17:27:52.003Z,101086.70
2018-05-03T17:30:54.483Z,101095.27
2018-05-03T17:33:57.080Z,101105.00
2018-05-03T17:36:59.720Z,101107.11
2018-05-03T17:40:03.447Z,101111.30
2018-05-03T17:43:06.482Z,101121.18
2018-05-03T17:46:09.636Z,101132.20
2018-05-03T17:49:16.115Z,101141.83
2018-05-03T17:52:29.188Z,101150.84
2018-05-03T17:55:32.132Z,101152.64
2018-05-03T18:02:05.461Z,101170.69
2018-05-03T18:05:11.807Z,101174.58
2018-05-03T18:08:14.581Z,101175.23
2018-05-03T18:11:19.890Z,101190.38
2018-05-03T18:14:23.709Z,101194.52
2018-05-03T18:17:27.166Z,101199.25
2018-05-03T18:20:29.895Z,101208.38
2018-05-03T18:23:32.564Z,101215.44
2018-05-03T18:26:35.508Z,101224.80
2018-05-03T18:29:38.851Z,101229.95
2018-05-03T18:32:41.681Z,101238.28
2018-05-03T18:35:48.501Z,101244.91
2018-05-03T18:38:51.349Z,101251.03
2018-05-03T18:41:54.138Z,101260.67
2018-05-03T18:44:56.979Z,101265.92
2018-05-03T18:47:59.595Z,101278.69
2018-05-03T18:51:03.176Z,101283.38
2018-05-03T18:54:05.838Z,101289.07
2018-05-03T18:57:08.967Z,101297.60
2018-05-03T19:00:11.847Z,101301.30
2018-05-03T19:03:16.771Z,101312.64
2018-05-03T19:06:19.599Z,101313.38
2018-05-03T19:09:22.415Z,101319.54
2018-05-03T19:12:25.779Z,101321.89
2018-05-03T19:15:28.447Z,101324.28
2018-05-03T19:18:31.738Z,101331.48
2018-05-03T19:21:35.217Z,101335.31
2018-05-03T19:24:38.290Z,101337.83
2018-05-03T19:27:41.723Z,101344.12
2018-05-03T19:30:45.206Z,101349.92
2018-05-03T19:33:47.884Z,101341.61
2018-05-03T19:36:51.331Z,101350.58
2018-05-03T19:39:54.608Z,101345.91
2018-05-03T19:42:57.764Z,101345.23
2018-05-03T19:46:01.733Z,101348.45
2018-05-03T19:49:05.292Z,101350.31
2018-05-03T19:52:08.656Z,101356.98
2018-05-03T19:55:12.089Z,101355.30
2018-05-03T19:58:16.182Z,101360.64
2018-05-03T20:01:19.724Z,101364.02
2018-05-03T20:04:22.491Z,101380.03
2018-05-03T20:07:25.796Z,101383.31
2018-05-03T20:10:28.528Z,101380.89
2018-05-03T20:13:31.288Z,101376.36
2018-05-03T20:16:53.854Z,101384.80
2018-05-03T20:19:57.042Z,101382.41
2018-05-03T20:22:59.771Z,101384.64
2018-05-03T20:26:03.063Z,101389.84
2018-05-03T20:29:06.495Z,101399.95
2018-05-03T20:32:09.780Z,101402.66
2018-05-03T20:35:13.936Z,101396.95
2018-05-03T20:38:17.324Z,101398.17
2018-05-03T20:41:19.960Z,101406.77
2018-05-03T20:44:24.041Z,101407.64
2018-05-03T20:47:26.766Z,101419.05
2018-05-03T20:50:34.006Z,101405.52
2018-05-03T20:53:36.982Z,101408.70
2018-05-03T20:56:39.730Z,101422.61
2018-05-03T20:59:42.710Z,101419.01
2018-05-03T21:02:45.753Z,101415.52
2018-05-03T21:05:48.628Z,101424.34
2018-05-03T21:08:51.494Z,101415.34
2018-05-03T21:11:54.193Z,101423.98
2018-05-03T21:14:56.838Z,101421.78
2018-05-03T21:17:59.412Z,101422.83
2018-05-03T21:21:02.128Z,101427.86
2018-05-03T21:24:05.715Z,101430.94
2018-05-03T21:27:08.953Z,101431.64
2018-05-03T21:30:12.448Z,101434.42
2018-05-03T21:33:15.107Z,101446.55
2018-05-03T21:36:17.733Z,101453.02
2018-05-03T21:39:21.740Z,101461.84
2018-05-03T21:42:24.476Z,101456.41
2018-05-03T21:45:28.036Z,101463.33
2018-05-03T21:48:30.729Z,101467.30
2018-05-03T21:51:34.743Z,101470.56
2018-05-03T21:54:38.148Z,101474.50
2018-05-03T21:57:42.605Z,101478.34
2018-05-03T22:00:45.147Z,101486.34
2018-05-03T22:03:47.838Z,101495.88
2018-05-03T22:06:51.125Z,101492.48
2018-05-03T22:09:55.216Z,101495.23
2018-05-03T22:13:02.119Z,101497.72
2018-05-03T22:16:06.039Z,101502.10
2018-05-03T22:19:10.032Z,101499.03
2018-05-03T22:22:13.783Z,101508.40
2018-05-03T22:25:17.049Z,101510.33
2018-05-03T22:28:19.672Z,101513.80
2018-05-03T22:31:24.695Z,101501.69
2018-05-03T22:34:27.313Z,101501.77
2018-05-03T22:37:30.941Z,101499.05
2018-05-03T22:40:34.381Z,101491.15
2018-05-03T22:43:40.703Z,101500.08
2018-05-03T22:46:48.513Z,101507.73
2018-05-03T22:49:54.107Z,101512.23
2018-05-03T22:52:57.322Z,101510.19
2018-05-03T22:56:03.802Z,101505.98
2018-05-03T22:59:16.008Z,101502.46
2018-05-03T23:02:24.240Z,101508.34
2018-05-03T23:05:35.347Z,101507.13
2018-05-03T23:08:39.545Z,101511.73
2018-05-03T23:11:43.727Z,101511.54
2018-05-03T23:21:45.721Z,101521.81
2018-05-03T23:24:53.673Z,101526.49
2018-05-03T23:27:57.839Z,101527.09
2018-05-03T23:31:00.832Z,101520.94
2018-05-03T23:34:06.415Z,101522.66
2018-05-03T23:37:09.656Z,101523.39
2018-05-03T23:40:17.034Z,101519.80
2018-05-03T23:43:19.644Z,101527.22
2018-05-03T23:46:23.357Z,101529.06
2018-05-03T23:49:38.268Z,101527.06
2018-05-03T23:52:41.746Z,101524.18
2018-05-03T23:55:48.896Z,101517.52
2018-05-03T23:58:56.547Z,101516.70
